createdAt,value
2022-12-01T00:01:08.003Z,69.68
2022-12-01T00:03:39.362Z,69.99
2022-12-01T00:06:14.671Z,69.67
2022-12-01T00:09:06.997Z,69.50
2022-12-01T00:11:37.402Z,68.87
2022-12-01T00:14:08.970Z,68.14
2022-12-01T00:16:41.373Z,68.48
2022-12-01T00:19:12.054Z,67.65
2022-12-01T00:21:44.374Z,67.34
2022-12-01T00:24:15.288Z,67.43
2022-12-01T00:26:45.891Z,67.48
2022-12-01T00:29:16.569Z,66.83
2022-12-01T00:31:47.306Z,67.05
2022-12-01T00:34:25.393Z,66.97
2022-12-01T00:36:57.660Z,67.38
2022-12-01T00:39:28.289Z,67.46
2022-12-01T00:41:58.921Z,66.24
2022-12-01T00:44:29.558Z,63.56
2022-12-01T00:47:00.199Z,62.74
2022-12-01T00:49:30.889Z,62.46
2022-12-01T00:52:03.198Z,61.52
2022-12-01T00:54:34.540Z,61.08
2022-12-01T00:57:05.311Z,60.92
2022-12-01T00:59:36.149Z,61.64
2022-12-01T01:02:08.018Z,61.43
2022-12-01T01:04:39.544Z,62.06
2022-12-01T01:07:12.086Z,61.47
2022-12-01T01:09:44.269Z,61.03
2022-12-01T01:12:14.893Z,60.45
2022-12-01T01:14:45.635Z,60.64
2022-12-01T01:17:16.314Z,60.37
2022-12-01T01:19:47.321Z,60.35
2022-12-01T01:22:19.890Z,60.30
2022-12-01T01:24:50.543Z,60.88
2022-12-01T01:27:21.315Z,61.04
2022-12-01T01:29:52.014Z,61.82
2022-12-01T01:32:22.650Z,61.54
2022-12-01T01:34:53.319Z,60.95
2022-12-01T01:37:25.791Z,60.80
2022-12-01T01:39:56.509Z,61.05
2022-12-01T01:42:27.199Z,60.26
2022-12-01T01:44:59.936Z,60.57
2022-12-01T01:47:34.713Z,60.05
2022-12-01T01:50:11.291Z,59.30
2022-12-01T01:52:48.073Z,60.00
2022-12-01T01:55:19.522Z,59.76
2022-12-01T01:57:50.472Z,58.60
2022-12-01T02:00:22.995Z,58.66
2022-12-01T02:02:54.496Z,59.12
2022-12-01T02:05:28.315Z,58.97
2022-12-01T02:08:02.939Z,59.07
2022-12-01T02:10:50.771Z,58.70
2022-12-01T02:13:36.148Z,58.64
2022-12-01T02:16:15.364Z,59.69
2022-12-01T02:18:58.513Z,59.15
2022-12-01T02:21:39.133Z,59.46
2022-12-01T02:24:48.346Z,60.39
2022-12-01T02:27:31.984Z,61.07
2022-12-01T02:30:09.811Z,60.77
2022-12-01T02:32:55.724Z,59.35
2022-12-01T02:35:35.092Z,58.43
2022-12-01T02:38:16.296Z,57.70
2022-12-01T02:40:54.106Z,58.33
2022-12-01T02:43:32.843Z,58.43
2022-12-01T02:46:13.519Z,58.75
2022-12-01T02:48:51.312Z,59.40
2022-12-01T02:51:25.875Z,59.98
2022-12-01T02:53:58.187Z,60.63
2022-12-01T02:56:29.138Z,60.31
2022-12-01T02:58:59.826Z,60.49
2022-12-01T03:01:47.627Z,61.02
2022-12-01T03:04:40.026Z,61.75
2022-12-01T03:07:25.075Z,61.94
2022-12-01T03:10:04.782Z,62.10
2022-12-01T03:12:41.097Z,62.72
2022-12-01T03:15:21.032Z,63.06
2022-12-01T03:17:58.887Z,62.71
2022-12-01T03:20:37.021Z,63.33
2022-12-01T03:23:11.727Z,61.75
2022-12-01T03:25:47.430Z,62.23
2022-12-01T03:28:23.228Z,61.85
2022-12-01T03:30:58.374Z,61.17
2022-12-01T03:33:34.123Z,61.75
2022-12-01T03:36:11.003Z,62.11
2022-12-01T03:38:46.761Z,61.63
2022-12-01T03:41:21.467Z,61.18
2022-12-01T03:43:58.476Z,60.82
2022-12-01T03:46:37.108Z,61.26
2022-12-01T03:49:09.702Z,61.11
2022-12-01T03:51:54.065Z,60.17
2022-12-01T03:55:27.543Z,60.42
2022-12-01T03:58:14.160Z,60.04
2022-12-01T04:01:00.814Z,59.95
2022-12-01T04:03:43.419Z,60.43
2022-12-01T04:06:33.100Z,60.02
2022-12-01T04:09:19.785Z,60.22
2022-12-01T04:12:07.594Z,59.35
2022-12-01T04:14:38.430Z,59.32
2022-12-01T04:17:09.282Z,59.84
2022-12-01T04:19:39.901Z,59.87
2022-12-01T04:22:10.609Z,60.05
2022-12-01T04:24:43.107Z,60.03
2022-12-01T04:27:13.920Z,60.14
2022-12-01T04:29:44.790Z,60.50
2022-12-01T04:32:16.014Z,60.31
2022-12-01T04:34:46.787Z,60.88
2022-12-01T04:37:17.603Z,60.80
2022-12-01T04:39:50.163Z,61.07
2022-12-01T04:42:21.030Z,60.67
2022-12-01T04:44:51.768Z,60.77
2022-12-01T04:47:22.456Z,60.69
2022-12-01T04:49:53.619Z,60.18
2022-12-01T04:52:24.335Z,60.12
2022-12-01T04:54:56.730Z,60.66
2022-12-01T04:57:27.986Z,61.03
2022-12-01T04:59:58.763Z,60.65
2022-12-01T05:02:29.567Z,58.97
2022-12-01T05:05:00.479Z,59.45
2022-12-01T05:07:31.353Z,59.42
2022-12-01T05:10:03.827Z,60.28
2022-12-01T05:12:34.651Z,60.38
2022-12-01T05:15:05.494Z,60.29
2022-12-01T05:17:37.233Z,60.40
2022-12-01T05:20:31.863Z,60.76
2022-12-01T05:23:06.451Z,60.74
2022-12-01T05:25:39.774Z,60.84
2022-12-01T05:28:10.573Z,60.86
2022-12-01T05:30:41.705Z,61.27
2022-12-01T05:33:12.583Z,61.25
2022-12-01T05:35:43.332Z,61.77
2022-12-01T05:38:14.798Z,62.15
2022-12-01T05:40:52.520Z,62.69
2022-12-01T05:43:29.161Z,63.42
2022-12-01T05:46:00.909Z,62.76
2022-12-01T05:48:31.791Z,62.74
2022-12-01T05:51:02.561Z,62.89
2022-12-01T05:53:33.304Z,62.91
2022-12-01T05:56:06.521Z,62.75
2022-12-01T05:58:37.798Z,62.32
2022-12-01T06:01:09.045Z,62.93
2022-12-01T06:03:40.011Z,63.25
2022-12-01T06:06:10.891Z,63.57
2022-12-01T06:08:44.428Z,64.00
2022-12-01T06:11:16.862Z,64.25
2022-12-01T06:13:47.710Z,64.65
2022-12-01T06:16:18.509Z,64.43
2022-12-01T06:18:49.732Z,65.31
2022-12-01T06:21:20.484Z,65.25
2022-12-01T06:23:51.194Z,65.01
2022-12-01T06:26:23.645Z,65.35
2022-12-01T06:28:55.483Z,65.69
2022-12-01T06:31:26.498Z,66.52
2022-12-01T06:33:57.456Z,67.20
2022-12-01T06:36:28.363Z,67.78
2022-12-01T06:39:01.695Z,67.86
2022-12-01T06:41:38.492Z,68.35
2022-12-01T06:44:22.657Z,68.09
2022-12-01T06:46:54.218Z,68.40
2022-12-01T06:49:25.681Z,69.21
2022-12-01T06:51:56.471Z,69.19
2022-12-01T06:54:30.751Z,69.27
2022-12-01T06:57:05.817Z,69.55
2022-12-01T06:59:37.821Z,70.30
2022-12-01T07:06:01.551Z,70.10
2022-12-01T07:08:38.726Z,69.76
2022-12-01T07:11:13.426Z,69.45
2022-12-01T07:13:47.760Z,69.72
2022-12-01T07:16:19.487Z,70.20
2022-12-01T07:18:50.978Z,70.37
2022-12-01T07:21:23.020Z,69.99
2022-12-01T07:23:55.258Z,70.18
2022-12-01T07:26:26.180Z,70.29
2022-12-01T07:28:58.720Z,70.07
2022-12-01T07:31:30.923Z,69.80
2022-12-01T07:34:02.691Z,70.04
2022-12-01T07:36:33.575Z,69.88
2022-12-01T07:39:08.482Z,70.33
2022-12-01T07:41:39.514Z,70.27
2022-12-01T07:44:22.002Z,70.08
2022-12-01T07:46:55.830Z,70.14
2022-12-01T07:49:27.728Z,70.16
2022-12-01T07:51:58.684Z,69.80
2022-12-01T07:54:29.890Z,70.41
2022-12-01T07:57:03.404Z,70.56
2022-12-01T07:59:35.917Z,70.71
2022-12-01T08:02:06.741Z,70.68
2022-12-01T08:04:37.956Z,70.75
2022-12-01T08:07:08.688Z,70.83
2022-12-01T08:09:40.182Z,70.93
2022-12-01T08:12:11.427Z,70.69
2022-12-01T08:14:46.318Z,70.94
2022-12-01T08:17:17.300Z,71.28
2022-12-01T08:19:48.571Z,71.33
2022-12-01T08:22:19.507Z,70.97
2022-12-01T08:24:50.703Z,71.05
2022-12-01T08:27:21.650Z,71.54
2022-12-01T08:29:54.190Z,70.93
2022-12-01T08:32:25.050Z,70.92
2022-12-01T08:34:55.952Z,70.82
2022-12-01T08:37:26.920Z,70.59
2022-12-01T08:40:00.359Z,71.49
2022-12-01T08:42:31.172Z,71.13
2022-12-01T08:45:17.428Z,70.33
2022-12-01T08:49:01.087Z,70.59
2022-12-01T08:51:33.824Z,70.50
2022-12-01T08:54:04.781Z,70.60
2022-12-01T08:56:38.823Z,70.33
2022-12-01T08:59:10.790Z,70.01
2022-12-01T09:01:55.772Z,70.21
2022-12-01T09:04:27.934Z,70.51
2022-12-01T09:07:00.021Z,70.65
2022-12-01T09:09:32.487Z,70.40
2022-12-01T09:12:04.819Z,70.45
2022-12-01T09:14:39.422Z,70.23
2022-12-01T09:17:15.986Z,70.56
2022-12-01T09:19:47.442Z,70.66
2022-12-01T09:22:19.630Z,71.16
2022-12-01T09:24:55.685Z,71.09
2022-12-01T09:27:30.920Z,71.17
2022-12-01T09:30:01.733Z,70.77
2022-12-01T09:32:39.914Z,71.09
2022-12-01T09:35:19.588Z,71.52
2022-12-01T09:37:54.990Z,71.39
2022-12-01T09:40:34.994Z,71.99
2022-12-01T09:43:16.188Z,72.10
2022-12-01T09:45:51.270Z,72.29
2022-12-01T09:48:30.153Z,71.88
2022-12-01T09:51:06.903Z,71.60
2022-12-01T09:53:40.156Z,71.60
2022-12-01T09:56:25.634Z,71.51
2022-12-01T09:59:00.552Z,71.24
2022-12-01T10:01:42.121Z,71.14
2022-12-01T10:04:20.629Z,71.30
2022-12-01T10:07:01.894Z,70.79
2022-12-01T10:09:42.103Z,70.61
2022-12-01T10:12:17.739Z,70.25
2022-12-01T10:14:51.849Z,70.92
2022-12-01T10:17:33.871Z,70.96
2022-12-01T10:20:14.134Z,70.90
2022-12-01T10:23:23.465Z,70.42
2022-12-01T10:26:01.492Z,70.98
2022-12-01T10:29:00.691Z,71.07
2022-12-01T10:31:38.910Z,71.91
2022-12-01T10:34:18.476Z,71.40
2022-12-01T10:36:53.257Z,71.74
2022-12-01T10:39:30.943Z,71.77
2022-12-01T10:42:07.521Z,72.03
2022-12-01T10:44:41.951Z,72.10
2022-12-01T10:47:45.033Z,72.49
2022-12-01T10:50:59.095Z,72.28
2022-12-01T10:53:37.476Z,72.62
2022-12-01T10:56:15.659Z,71.87
2022-12-01T10:58:53.222Z,71.81
2022-12-01T11:01:31.889Z,72.05
2022-12-01T11:04:08.708Z,72.08
2022-12-01T11:06:46.017Z,72.67
2022-12-01T11:09:26.428Z,72.50
2022-12-01T11:12:01.643Z,73.06
2022-12-01T11:14:43.836Z,72.91
2022-12-01T11:17:30.353Z,72.75
2022-12-01T11:20:35.176Z,72.82
2022-12-01T11:23:32.708Z,73.18
2022-12-01T11:26:10.880Z,72.81
2022-12-01T11:28:47.377Z,73.25
2022-12-01T11:31:19.830Z,73.11
2022-12-01T11:33:58.543Z,72.92
2022-12-01T11:36:34.749Z,73.18
2022-12-01T11:39:08.065Z,73.43
2022-12-01T11:41:43.664Z,73.39
2022-12-01T11:44:54.533Z,73.00
2022-12-01T11:47:26.804Z,73.75
2022-12-01T11:49:59.166Z,74.08
2022-12-01T11:52:34.996Z,73.99
2022-12-01T11:55:24.901Z,73.85
2022-12-01T11:57:59.207Z,73.90
2022-12-01T12:00:33.082Z,74.06
2022-12-01T12:03:22.398Z,74.02
2022-12-01T12:09:45.045Z,75.06
2022-12-01T12:12:33.391Z,75.05
2022-12-01T12:15:19.885Z,74.96
2022-12-01T12:18:07.208Z,75.29
2022-12-01T12:20:53.859Z,75.36
2022-12-01T12:23:58.465Z,75.10
2022-12-01T12:26:31.994Z,75.41
2022-12-01T12:29:20.834Z,75.29
2022-12-01T12:32:07.734Z,75.70
2022-12-01T12:34:52.136Z,75.61
2022-12-01T12:37:29.315Z,75.33
2022-12-01T12:40:26.454Z,75.43
2022-12-01T12:43:25.536Z,75.36
2022-12-01T12:46:12.302Z,75.44
2022-12-01T12:49:22.450Z,75.13
2022-12-01T12:51:55.963Z,74.88
2022-12-01T12:54:32.310Z,74.86
2022-12-01T12:57:10.988Z,74.76
2022-12-01T12:59:48.687Z,75.13
2022-12-01T13:02:25.038Z,75.36
2022-12-01T13:05:05.615Z,75.88
2022-12-01T13:07:44.501Z,75.90
2022-12-01T13:10:25.832Z,75.74
2022-12-01T13:13:01.473Z,75.50
2022-12-01T13:15:33.963Z,75.41
2022-12-01T13:18:19.963Z,75.58
2022-12-01T13:20:54.096Z,75.73
2022-12-01T13:23:28.707Z,75.61
2022-12-01T13:26:06.819Z,75.64
2022-12-01T13:28:43.819Z,75.45
2022-12-01T13:31:16.767Z,75.43
2022-12-01T13:33:59.603Z,75.18
2022-12-01T13:36:48.644Z,75.13
2022-12-01T13:39:22.614Z,74.91
2022-12-01T13:42:05.493Z,74.82
2022-12-01T13:44:42.489Z,74.70
2022-12-01T13:47:35.976Z,75.76
2022-12-01T13:50:50.603Z,74.83
2022-12-01T13:53:42.035Z,74.47
2022-12-01T13:56:41.151Z,74.56
2022-12-01T13:59:42.593Z,74.05
2022-12-01T14:02:31.854Z,73.38
2022-12-01T14:05:48.556Z,72.63
2022-12-01T14:08:24.047Z,72.82
2022-12-01T14:11:02.742Z,72.52
2022-12-01T14:13:46.210Z,72.11
2022-12-01T14:16:18.507Z,72.39
2022-12-01T14:18:54.348Z,72.17
2022-12-01T14:21:48.190Z,71.58
2022-12-01T14:24:29.424Z,71.23
2022-12-01T14:27:02.240Z,71.47
2022-12-01T14:29:39.378Z,71.27
2022-12-01T14:32:29.433Z,70.33
2022-12-01T14:35:02.671Z,70.37
2022-12-01T14:37:43.414Z,70.59
2022-12-01T14:40:27.836Z,70.40
2022-12-01T14:43:19.193Z,69.96
2022-12-01T14:46:02.413Z,69.98
2022-12-01T14:48:43.251Z,69.52
2022-12-01T14:51:22.455Z,69.42
2022-12-01T14:53:55.120Z,69.22
2022-12-01T14:56:27.303Z,68.98
2022-12-01T14:59:01.790Z,68.83
2022-12-01T15:01:36.719Z,69.05
2022-12-01T15:04:09.713Z,68.43
2022-12-01T15:06:41.252Z,68.60
2022-12-01T15:09:34.419Z,68.29
2022-12-01T15:12:08.694Z,68.66
2022-12-01T15:14:49.393Z,68.15
2022-12-01T15:17:33.509Z,67.91
2022-12-01T15:20:08.224Z,68.69
2022-12-01T15:22:39.837Z,69.02
2022-12-01T15:25:16.464Z,68.82
2022-12-01T15:28:05.727Z,68.53
2022-12-01T15:30:45.743Z,68.47
2022-12-01T15:33:20.618Z,68.61
2022-12-01T15:38:49.970Z,69.15
2022-12-01T15:41:30.988Z,69.86
2022-12-01T15:44:04.462Z,70.02
2022-12-01T15:46:37.493Z,70.74
2022-12-01T15:49:17.458Z,70.81
2022-12-01T15:51:49.308Z,70.67
2022-12-01T15:54:23.832Z,70.41
2022-12-01T15:56:56.854Z,70.06
2022-12-01T15:59:38.432Z,70.24
2022-12-01T16:02:31.022Z,70.18
2022-12-01T16:05:07.929Z,69.52
2022-12-01T16:10:33.136Z,69.23
2022-12-01T16:13:42.845Z,69.14
2022-12-01T16:16:32.901Z,69.03
2022-12-01T16:19:06.555Z,69.76
2022-12-01T16:21:45.067Z,70.57
2022-12-01T16:24:23.372Z,70.03
2022-12-01T16:26:56.349Z,69.56
2022-12-01T16:29:29.301Z,70.27
2022-12-01T16:32:20.141Z,70.45
2022-12-01T16:34:54.201Z,69.67
2022-12-01T16:37:25.496Z,69.82
2022-12-01T16:39:56.423Z,69.83
2022-12-01T16:42:27.577Z,69.71
2022-12-01T16:44:58.535Z,69.81
2022-12-01T16:47:32.290Z,69.57
2022-12-01T16:50:04.780Z,69.69
2022-12-01T16:52:50.561Z,69.67
2022-12-01T16:55:42.095Z,69.60
2022-12-01T16:58:13.104Z,69.48
2022-12-01T17:00:43.936Z,69.36
2022-12-01T17:03:16.614Z,68.89
2022-12-01T17:05:49.315Z,69.05
2022-12-01T17:08:20.364Z,68.88
2022-12-01T17:10:52.993Z,68.79
2022-12-01T17:13:25.538Z,68.86
2022-12-01T17:16:00.971Z,68.88
2022-12-01T17:18:34.753Z,68.82
2022-12-01T17:21:10.273Z,69.05
2022-12-01T17:23:41.996Z,69.43
2022-12-01T17:26:14.978Z,69.77
2022-12-01T17:28:45.977Z,70.28
2022-12-01T17:31:17.460Z,70.51
2022-12-01T17:33:48.223Z,71.27
2022-12-01T17:36:20.966Z,71.33
2022-12-01T17:38:54.566Z,71.17
2022-12-01T17:41:26.364Z,71.31
2022-12-01T17:43:58.856Z,70.62
2022-12-01T17:46:30.421Z,70.67
2022-12-01T17:49:01.704Z,70.55
2022-12-01T17:51:34.082Z,70.28
2022-12-01T17:54:04.788Z,69.55
2022-12-01T17:56:36.158Z,69.40
2022-12-01T17:59:07.263Z,69.21
2022-12-01T18:01:39.025Z,68.45
2022-12-01T18:04:10.054Z,67.97
2022-12-01T18:06:42.823Z,67.00
2022-12-01T18:09:13.678Z,66.59
2022-12-01T18:11:44.395Z,65.84
2022-12-01T18:14:18.548Z,65.23
2022-12-01T18:16:49.213Z,65.40
2022-12-01T18:19:20.098Z,65.64
2022-12-01T18:21:53.105Z,64.93
2022-12-01T18:24:24.013Z,64.56
2022-12-01T18:26:57.220Z,64.52
2022-12-01T18:29:30.802Z,65.02
2022-12-01T18:32:04.909Z,64.39
2022-12-01T18:34:35.779Z,64.46
2022-12-01T18:37:08.382Z,64.70
2022-12-01T18:39:39.488Z,64.89
2022-12-01T18:42:10.586Z,65.38
2022-12-01T18:44:44.577Z,66.60
2022-12-01T18:47:15.421Z,66.37
2022-12-01T18:49:46.381Z,66.35
2022-12-01T18:52:18.889Z,66.66
2022-12-01T18:54:50.403Z,67.00
2022-12-01T18:57:21.350Z,67.07
2022-12-01T18:59:55.114Z,67.56
2022-12-01T19:02:26.045Z,67.49
2022-12-01T19:04:57.151Z,67.48
2022-12-01T19:07:30.140Z,67.56
2022-12-01T19:10:03.988Z,67.99
2022-12-01T19:12:40.613Z,68.60
2022-12-01T19:15:12.969Z,68.77
2022-12-01T19:17:44.129Z,68.92
2022-12-01T19:20:16.137Z,69.05
2022-12-01T19:22:48.651Z,69.53
2022-12-01T19:25:19.409Z,69.57
2022-12-01T19:27:51.998Z,69.79
2022-12-01T19:30:23.228Z,70.18
2022-12-01T19:32:53.802Z,69.68
2022-12-01T19:35:26.875Z,69.74
2022-12-01T19:37:59.374Z,69.49
2022-12-01T19:40:30.351Z,69.64
2022-12-01T19:43:04.065Z,69.40
2022-12-01T19:45:36.473Z,69.54
2022-12-01T19:48:07.633Z,69.34
2022-12-01T19:50:38.812Z,69.07
2022-12-01T19:53:14.051Z,68.72
2022-12-01T19:55:44.862Z,68.50
2022-12-01T19:58:15.714Z,68.39
2022-12-01T20:00:47.180Z,67.76
2022-12-01T20:03:20.209Z,67.72
2022-12-01T20:05:54.333Z,67.85
2022-12-01T20:08:26.914Z,67.06
2022-12-01T20:10:58.214Z,67.14
2022-12-01T20:13:28.943Z,67.06
2022-12-01T20:16:05.609Z,66.90
2022-12-01T20:18:36.840Z,66.69
2022-12-01T20:21:15.953Z,66.73
2022-12-01T20:23:49.760Z,66.61
2022-12-01T20:26:26.152Z,66.67
2022-12-01T20:29:03.185Z,66.78
2022-12-01T20:31:35.604Z,67.13
2022-12-01T20:34:08.648Z,67.07
2022-12-01T20:36:42.573Z,66.85
2022-12-01T20:39:16.593Z,67.08
2022-12-01T20:41:48.034Z,66.92
2022-12-01T20:44:22.545Z,67.14
2022-12-01T20:47:04.850Z,67.62
2022-12-01T20:49:35.762Z,67.79
2022-12-01T20:52:06.722Z,67.60
2022-12-01T20:54:42.428Z,67.35
2022-12-01T20:57:13.224Z,67.53
2022-12-01T20:59:44.009Z,67.83
2022-12-01T21:02:14.793Z,68.40
2022-12-01T21:04:45.823Z,68.74
2022-12-01T21:07:16.605Z,68.54
2022-12-01T21:09:49.306Z,68.80
2022-12-01T21:12:36.997Z,69.09
2022-12-01T21:15:23.224Z,68.15
2022-12-01T21:18:01.952Z,68.75
2022-12-01T21:20:34.633Z,69.45
2022-12-01T21:23:12.182Z,70.24
2022-12-01T21:25:46.077Z,70.70
2022-12-01T21:28:21.270Z,71.23
2022-12-01T21:30:53.714Z,70.95
2022-12-01T21:33:30.807Z,70.79
2022-12-01T21:36:03.156Z,71.10
2022-12-01T21:38:35.436Z,71.47
2022-12-01T21:41:18.525Z,72.05
2022-12-01T21:43:49.369Z,72.94
2022-12-01T21:46:21.232Z,73.45
2022-12-01T21:48:53.298Z,73.19
2022-12-01T21:51:25.653Z,73.45
2022-12-01T21:53:58.618Z,73.98
2022-12-01T21:56:32.538Z,74.15
2022-12-01T21:59:16.308Z,74.35
2022-12-01T22:01:47.226Z,74.06
2022-12-01T22:04:23.858Z,73.66
2022-12-01T22:06:56.516Z,74.02
2022-12-01T22:09:29.117Z,74.63
2022-12-01T22:12:13.644Z,74.73
2022-12-01T22:14:44.534Z,74.22
2022-12-01T22:17:22.413Z,73.80
2022-12-01T22:19:59.750Z,73.49
2022-12-01T22:22:31.549Z,72.72
2022-12-01T22:25:04.656Z,72.37
2022-12-01T22:27:39.296Z,72.50
2022-12-01T22:30:20.397Z,72.89
2022-12-01T22:32:58.531Z,73.16
2022-12-01T22:35:31.796Z,72.42
2022-12-01T22:38:16.914Z,72.27
2022-12-01T22:40:56.528Z,72.33
2022-12-01T22:43:44.135Z,72.10
2022-12-01T22:46:23.425Z,71.48
2022-12-01T22:48:56.076Z,71.71
2022-12-01T22:51:32.700Z,71.92
2022-12-01T22:54:25.850Z,72.18
2022-12-01T22:57:08.193Z,71.74
2022-12-01T22:59:43.131Z,71.91
2022-12-01T23:02:22.308Z,72.05
2022-12-01T23:04:57.931Z,71.93
2022-12-01T23:07:34.821Z,71.93
2022-12-01T23:10:12.341Z,71.93
2022-12-01T23:12:43.381Z,71.75
2022-12-01T23:15:32.616Z,71.64
2022-12-01T23:18:12.800Z,71.58
2022-12-01T23:20:44.456Z,71.08
2022-12-01T23:23:18.072Z,70.61
2022-12-01T23:25:50.155Z,70.44
2022-12-01T23:28:21.747Z,70.38
2022-12-01T23:30:57.317Z,70.69
2022-12-01T23:33:31.147Z,70.70
2022-12-01T23:36:05.039Z,70.55
2022-12-01T23:38:40.149Z,70.38
2022-12-01T23:41:15.407Z,70.46
2022-12-01T23:43:48.033Z,70.12
2022-12-01T23:46:23.544Z,69.67
2022-12-01T23:48:57.192Z,69.36
2022-12-01T23:51:33.655Z,69.14
2022-12-01T23:54:11.318Z,68.83
2022-12-01T23:56:42.301Z,68.93
2022-12-01T23:59:15.448Z,68.44
